SVBC/BLA METAR and TAF weather

Enter ICAO airport designator
Station Type Date Time Source
SVBC METAR 2019/05/15 23:00 UTC NOAA

SVBC 152300Z /////KT 9999 FEW010 30/25 Q1008


Station Type Date Time Source
SVBC Decoded METAR 2019/05/15 23:00 UTC NOAA

Barcelona, Venezuela (SVBC) 10-07N 064-41W 7M
May 15, 2019 - 07:00 PM EDT / 2019.05.15 2300 UTC
Visibility: greater than 7 mile(s):0
Sky conditions: mostly clear
Temperature: 86 F (30 C)
Heat index: 96.8 F (36.0 C):1
Dew Point: 77 F (25 C)
Relative Humidity: 74%
Pressure (altimeter): 29.77 in. Hg (1008 hPa)
ob: SVBC 152300Z /////KT 9999 FEW010 30/25 Q1008
cycle: 23

Station Type Date Time Source
SVBC TAF 2019/06/19 06:04 UTC NOAA

TAF SVBC 190400Z 1906/2006 00000KT 9999 BKN010 TX35/1800Z TN23/0700Z
TEMPO 1906/1910 7000 +DZ BKN010

Example: see airport list